Terminal Aerodrome Forecast
Issued by NWS

Home | Current Version | Previous Version | Text Only | Print | Product List | Glossary On
Versions: 1 2 3 4 5 6 7 8 9 10 11 12 13 14 15 16 17 18 19 20 21 22 23 24 25 26 27
000
FTUS44 KHGX 271736
TAFIAH
TAF
KIAH 271736Z 2718/2824 22005KT P6SM SCT035 SCT250
     FM272000 15010KT P6SM VCSH SCT050 SCT250
     FM280000 19006KT P6SM FEW040 SCT250
     FM280500 20003KT P6SM FEW015 SCT250
     FM281500 24007KT P6SM FEW025 SCT250
     FM282000 16008KT P6SM FEW060 SCT250=

USA.gov is the U.S. government's official web portal to all federal, state and local government web resources and services.